Sorve, Estonia

10:36 AM EET on December 21, 2014 (GMT +0200)
VENTPILS | Change Station
CLOSE
Current Station
Airport
Location: VENTPILS,
Elevation: 20 ft
Nearby Weather Stations

Elev 20 ft 57.36 °N, 21.54 °E | Updated 16 minutes ago

Mostly Cloudy
Mostly Cloudy
39 °F
Feels Like 30 °F
N
17
Wind Variable Wind from NW

Today
High -- | Low -- °F
--% Chance of Precip.
Yesterday
High -- | Low -- °F
Precip. -- in
9:15 AM 3:44 PM
Waning Crescent, 1% visible
Pressure 29.62 in
Visibility 6.2 miles
Clouds Few 2200 ft
Scattered Clouds 3000 ft
Mostly Cloudy 3900 ft
Windchill 30 °F
Dew Point 32 °F
Humidity 75%
Rainfall 0.00 in
Snow Depth Not available.
UV 0 out of 12
Pollen Not available.
Air Quality Not available.
Flu Activity Not available.
METAR EVVA 210820Z AUTO 31015KT 9999 FEW022 SCT030 BKN039 04/00 Q1003

More Conditions Fewer Conditions

Pressure 29.62 in
Visibility 6.2 miles
Clouds Few 2200 ft
Scattered Clouds 3000 ft
Mostly Cloudy 3900 ft
Windchill 30 °F
Dew Point 32 °F
Humidity 75%
Rainfall 0.00 in
Snow Depth Not available.
UV 0 out of 12
Pollen Not available.
Air Quality Not available.
Flu Activity Not available.
METAR EVVA 210820Z AUTO 31015KT 9999 FEW022 SCT030 BKN039 04/00 Q1003

More Conditions Fewer Conditions

10-Day Weather Forecast

Almanac

Astronomy

Dec. 21, 2014 Rise Set
Actual Time
Civil Twilight
Nautical Twilight
Astronomical Twilight
Moon
Length of Visible Light
Length of Day
Tomorrow will be .
, % of the Moon is Illuminated

Today's Extremes

Country Highs Country Lows

Community

WunderPhotos

Upload Photos

1,779,362 photos uploaded!

WunderBlogs® & News

Nearby

Air Quality

  Air Quality AQ Index Pollutant
Not available.

Snow Depth

Station Depth Elevation

Earthquake Activity

City Distance Mag. Time & Date
Minimum magnitude displayed is 2.5.

Coastal Water Temperatures

Place Temperature

Nearby Weather Stations